Fangst — LK6971 — position and weather

sailwx.info

Track history (hours):
 
Tides and Currents Weather Stations Pressure Air Temp Water Temp Dewpoint Dewpoint Depression Visibility Wind Speed Wind Dir Waves Ship Positions

Oceanographic research ship Fangst (Norway)

Detailed information on ship capabilities available from University of Delaware's Ocean Information Center and ARCUS's ALIAS (Arctic Logistics Information and Support) project.

Last reported at 2017-May-25 17:22 UTC. Time now 2017-May-26 07:23 UTC.
Position N 59°36' E 005°14'.

Length 14 m; draft 2.5 m.

Type: Fishing. MMSI: 257076840.

Date/timePositionNaut miles runAvg speedWind from/ knotsBaromVisibWave heightAir tempDewpointWater temp
2017-May-25 17:22N 59°36' E 005°14'2 4.9
2017-May-25 17:00N 59°38' E 005°16'1 1.6
2017-May-25 16:28N 59°37' E 005°16'1 2.5
2017-May-25 15:59N 59°36' E 005°15'2 2.5
2017-May-25 15:23N 59°35' E 005°13'1 0.4
2017-May-25 14:00N 59°35' E 005°14'1 2.9
2017-May-25 13:30N 59°36' E 005°15'1 2.8
2017-May-25 13:00N 59°37' E 005°17'1 1.5
2017-May-25 12:30N 59°37' E 005°16'1 2.7
2017-May-25 12:00N 59°36' E 005°14'2 2.7
2017-May-25 11:15N 59°34' E 005°12'1 0.1
2017-May-24 16:11N 59°35' E 005°14'0 2.0
2017-May-24 16:00N 59°35' E 005°14'1 1.7
2017-May-24 15:30N 59°36' E 005°15'1 3.0
2017-May-24 15:00N 59°37' E 005°16'1 2.9
2017-May-24 14:30N 59°39' E 005°17'0 0.4
2017-May-24 13:29N 59°39' E 005°18'1 2.5
2017-May-24 12:58N 59°38' E 005°16'1 2.4
2017-May-24 12:30N 59°37' E 005°18'1 2.7
2017-May-24 12:00N 59°39' E 005°17'1 2.4
2017-May-24 11:30N 59°40' E 005°19'1 2.7
2017-May-24 10:59N 59°40' E 005°21'1 2.8
2017-May-24 10:29N 59°41' E 005°23'1 2.8
2017-May-24 10:00N 59°42' E 005°25'1 2.8
2017-May-24 09:30N 59°43' E 005°27'1 2.4
2017-May-24 08:58N 59°44' E 005°29'2 4.2
2017-May-24 08:30N 59°46' E 005°31'1 2.0
2017-May-24 07:59N 59°47' E 005°30'0 0.0
2017-May-24 07:29N 59°47' E 005°30'0 0.0
2017-May-24 06:57N 59°47' E 005°30'0 0.0
2017-May-24 06:30N 59°47' E 005°30'0 0.0
2017-May-24 06:00N 59°47' E 005°30'0 0.0
2017-May-24 05:29N 59°47' E 005°30'0 0.0
2017-May-24 05:00N 59°47' E 005°30'0 0.0
2017-May-24 04:29N 59°47' E 005°30'0 0.0
2017-May-24 03:59N 59°47' E 005°30'0 0.0
2017-May-24 03:30N 59°47' E 005°30'0 0.0
2017-May-24 02:59N 59°47' E 005°30'0 0.0
2017-May-24 02:29N 59°47' E 005°30'0 0.0
2017-May-24 02:00N 59°47' E 005°30'0 0.0
2017-May-24 01:30N 59°47' E 005°30'0 0.0
2017-May-24 00:59N 59°47' E 005°30'0 0.0
2017-May-24 00:28N 59°47' E 005°30'0 0.0
2017-May-24 00:00N 59°47' E 005°30'0 0.0
2017-May-23 23:29N 59°47' E 005°30'0 0.0
2017-May-23 23:00N 59°47' E 005°30'0 0.0
2017-May-23 22:28N 59°47' E 005°30'0 0.0
2017-May-23 21:58N 59°47' E 005°30'0 0.0
2017-May-23 21:29N 59°47' E 005°30'0 0.0
2017-May-23 21:00N 59°47' E 005°30'0 0.0
2017-May-23 20:29N 59°47' E 005°30'0 0.0
2017-May-23 20:00N 59°47' E 005°30'0 0.0
2017-May-23 19:29N 59°47' E 005°30'0 0.0
2017-May-23 19:00N 59°47' E 005°30'0 0.0
2017-May-23 18:29N 59°47' E 005°30'0 0.0
2017-May-23 18:00N 59°47' E 005°30'0 0.0
2017-May-23 17:30N 59°47' E 005°30'0 0.0
2017-May-23 16:59N 59°47' E 005°30'0 0.0
2017-May-23 16:29N 59°47' E 005°30'0 0.0
2017-May-23 16:00N 59°47' E 005°30'0 0.0
2017-May-23 15:30N 59°47' E 005°30'0 0.0
2017-May-23 14:59N 59°47' E 005°30'2 4.5
2017-May-23 14:30N 59°45' E 005°33'2 1.7
2017-May-23 13:30N 59°44' E 005°31'1 2.9
2017-May-23 12:59N 59°44' E 005°28'1 2.5
2017-May-23 12:30N 59°43' E 005°26'1 2.4
2017-May-23 12:00N 59°42' E 005°25'1 2.5
2017-May-23 11:30N 59°41' E 005°23'1 2.7
2017-May-23 10:59N 59°40' E 005°21'1 1.9
2017-May-23 10:30N 59°41' E 005°23'1 2.4
2017-May-23 09:59N 59°42' E 005°24'2 3.3
2017-May-23 09:30N 59°43' E 005°26'2 3.4
2017-May-23 09:00N 59°44' E 005°28'2 4.3
2017-May-23 08:30N 59°46' E 005°31'1 1.6
2017-May-23 08:00N 59°47' E 005°30'0 0.0
2017-May-23 07:29N 59°47' E 005°30'0 0.0
2017-May-23 06:59N 59°47' E 005°30'0 0.0
2017-May-23 06:30N 59°47' E 005°30'0 0.0
2017-May-23 06:00N 59°47' E 005°30'0 0.0
2017-May-23 05:30N 59°47' E 005°30'0 0.0
2017-May-23 04:59N 59°47' E 005°30'0 0.0
2017-May-23 04:30N 59°47' E 005°30'0 0.0
2017-May-23 04:00N 59°47' E 005°30'0 0.0
2017-May-23 03:29N 59°47' E 005°30'0 0.0
2017-May-23 02:59N 59°47' E 005°30'0 0.0
2017-May-23 02:30N 59°47' E 005°30'0 0.0
2017-May-23 02:00N 59°47' E 005°30'0 0.0
2017-May-23 01:30N 59°47' E 005°30'0 0.0
2017-May-23 00:59N 59°47' E 005°30'0 0.0
2017-May-23 00:30N 59°47' E 005°30'0 0.0
2017-May-22 23:59N 59°47' E 005°30'0 0.0
2017-May-22 23:30N 59°47' E 005°30'0 0.0
2017-May-22 23:00N 59°47' E 005°30'0 0.0
2017-May-22 22:29N 59°47' E 005°30'0 0.0
2017-May-22 21:58N 59°47' E 005°30'0 0.0
2017-May-22 21:29N 59°47' E 005°30'0 0.0
2017-May-22 21:01N 59°47' E 005°30'0 0.0
2017-May-22 20:30N 59°47' E 005°30'0 0.0
2017-May-22 19:59N 59°47' E 005°30'0 0.0
2017-May-22 19:29N 59°47' E 005°30'0 0.0
2017-May-22 18:59N 59°47' E 005°30'0 0.0
2017-May-22 18:29N 59°47' E 005°30'0 0.0
2017-May-22 17:59N 59°47' E 005°30'0 0.0
2017-May-22 17:30N 59°47' E 005°30'0 0.0
2017-May-22 17:00N 59°47' E 005°30'0 0.0
2017-May-22 16:30N 59°47' E 005°30'0 0.0
2017-May-22 16:00N 59°47' E 005°30'0 0.0
2017-May-22 15:30N 59°47' E 005°30'0 0.0
2017-May-22 15:00N 59°47' E 005°30'1 1.1
2017-May-22 14:00N 59°46' E 005°30'2 5.0
2017-May-22 13:30N 59°44' E 005°28'1 1.9
2017-May-22 13:00N 59°43' E 005°27'2 2.9
2017-May-22 12:29N 59°42' E 005°24'1 2.6
2017-May-22 11:59N 59°41' E 005°23'1 2.8
2017-May-22 11:29N 59°40' E 005°20'1 2.7
2017-May-22 11:00N 59°39' E 005°19'1 2.8
2017-May-22 10:30N 59°38' E 005°18'1 2.2
2017-May-22 10:00N 59°39' E 005°16'1 2.7
2017-May-22 09:29N 59°39' E 005°18'1 2.7
2017-May-22 09:00N 59°40' E 005°20'1 2.7
2017-May-22 08:30N 59°41' E 005°22'1 2.9
2017-May-22 08:00N 59°42' E 005°24'1 2.7
2017-May-22 07:31N 59°43' E 005°26'2 3.0
2017-May-22 07:00N 59°44' E 005°28'2 3.2
2017-May-22 06:30N 59°45' E 005°30'1 2.6
2017-May-22 06:00N 59°47' E 005°30'0 0.0
2017-May-22 05:30N 59°47' E 005°30'0 0.0
2017-May-22 05:00N 59°47' E 005°30'0 0.0
2017-May-22 04:30N 59°47' E 005°30'0 0.0
2017-May-22 03:59N 59°47' E 005°30'0 0.0
2017-May-22 03:27N 59°47' E 005°30'0 0.0
2017-May-22 02:57N 59°47' E 005°30'0 0.0
2017-May-22 02:29N 59°47' E 005°30'0 0.0
2017-May-22 01:41N 59°47' E 005°30'0 0.0
2017-May-22 01:29N 59°47' E 005°30'0 0.0
2017-May-22 00:25N 59°47' E 005°30'0 0.0
2017-May-21 23:58N 59°47' E 005°30'0 0.0
2017-May-21 23:22N 59°47' E 005°30'0 0.0
2017-May-21 22:58N 59°47' E 005°30'0 0.0
2017-May-21 22:30N 59°47' E 005°30'0 0.0
2017-May-21 21:58N 59°47' E 005°30'0 0.0
2017-May-21 21:26N 59°47' E 005°30'0 0.0
2017-May-21 21:00N 59°47' E 005°30'0 0.0
2017-May-21 20:29N 59°47' E 005°30'0 0.0
2017-May-21 19:48N 59°47' E 005°30'0 0.0
2017-May-21 19:29N 59°47' E 005°30'0 0.0
2017-May-21 19:00N 59°47' E 005°30'0 0.0
2017-May-21 18:28N 59°47' E 005°30'0 0.0
2017-May-21 18:00N 59°47' E 005°30'0 0.0
2017-May-21 17:29N 59°47' E 005°30'0 0.0
2017-May-21 17:00N 59°47' E 005°30'0 0.0
2017-May-21 16:28N 59°47' E 005°30'0 0.0
2017-May-21 15:59N 59°47' E 005°30'0 0.0
2017-May-21 15:28N 59°47' E 005°30'0 0.0
2017-May-21 14:59N 59°47' E 005°30'0 0.0
2017-May-21 14:28N 59°47' E 005°30'3 3.0
2017-May-21 13:29N 59°44' E 005°27'1 2.2
2017-May-21 13:00N 59°43' E 005°26'1 2.9
2017-May-21 12:30N 59°42' E 005°24'1 2.8
2017-May-21 12:00N 59°41' E 005°22'1 2.6
2017-May-21 11:28N 59°40' E 005°20'1 2.5
2017-May-21 11:00N 59°39' E 005°19'1 2.8
2017-May-21 10:29N 59°38' E 005°18'1 2.0
2017-May-21 10:00N 59°39' E 005°16'1 2.5
2017-May-21 09:29N 59°39' E 005°18'1 2.2
2017-May-21 09:00N 59°40' E 005°20'1 2.6
2017-May-21 08:29N 59°41' E 005°22'1 3.0
2017-May-21 08:00N 59°42' E 005°24'1 3.0
2017-May-21 07:30N 59°43' E 005°26'2 3.0
2017-May-21 07:00N 59°44' E 005°28'1 3.0
2017-May-21 06:30N 59°45' E 005°30'2 2.9
2017-May-21 05:59N 59°47' E 005°30'0 0.0
2017-May-21 05:30N 59°47' E 005°30'0 0.0
2017-May-21 05:00N 59°47' E 005°30'0 0.0
2017-May-21 04:30N 59°47' E 005°30'0 0.0
2017-May-21 03:59N 59°47' E 005°30'0 0.0
2017-May-21 03:29N 59°47' E 005°30'0 0.0
2017-May-21 03:00N 59°47' E 005°30'0 0.0
2017-May-21 02:30N 59°47' E 005°30'0 0.0
2017-May-21 02:00N 59°47' E 005°30'0 0.0
2017-May-21 01:30N 59°47' E 005°30'0 0.0
2017-May-21 01:00N 59°47' E 005°30'0 0.0
2017-May-21 00:29N 59°47' E 005°30'0 0.0
2017-May-21 00:00N 59°47' E 005°30'0 0.0
2017-May-20 23:30N 59°47' E 005°30'0 0.0
2017-May-20 22:59N 59°47' E 005°30'0 0.0
2017-May-20 22:29N 59°47' E 005°30'0 0.0
2017-May-20 21:57N 59°47' E 005°30'0 0.0
2017-May-20 21:30N 59°47' E 005°30'0 0.0
2017-May-20 21:00N 59°47' E 005°30'0 0.0
2017-May-20 20:29N 59°47' E 005°30'0 0.0
2017-May-20 19:59N 59°47' E 005°30'0 0.0
2017-May-20 19:30N 59°47' E 005°30'0 0.0
2017-May-20 18:59N 59°47' E 005°30'0 0.0
2017-May-20 18:30N 59°47' E 005°30'0 0.0
2017-May-20 17:59N 59°47' E 005°30'0 0.0
2017-May-20 17:29N 59°47' E 005°30'0 0.0
2017-May-20 16:59N 59°47' E 005°30'0 0.0
2017-May-20 16:28N 59°47' E 005°30'0 0.0
2017-May-20 16:00N 59°47' E 005°30'0 0.0
2017-May-20 15:30N 59°47' E 005°30'0 0.0
2017-May-20 14:59N 59°47' E 005°30'0 0.1
2017-May-20 14:30N 59°47' E 005°30'6 5.8
2017-May-20 13:30N 59°42' E 005°23'0 0.0
2017-May-20 13:00N 59°42' E 005°23'0 0.0
2017-May-20 12:29N 59°42' E 005°23'1 2.5
2017-May-20 12:00N 59°41' E 005°22'1 2.7
2017-May-20 11:30N 59°40' E 005°20'1 2.9
2017-May-20 11:00N 59°39' E 005°18'1 2.8
2017-May-20 10:29N 59°38' E 005°17'1 2.6
2017-May-20 10:00N 59°37' E 005°17'1 1.4
2017-May-20 09:28N 59°37' E 005°15'1 2.7
2017-May-20 08:58N 59°38' E 005°16'1 2.9
2017-May-20 08:30N 59°39' E 005°17'2 3.2
2017-May-20 07:59N 59°40' E 005°20'1 3.1
2017-May-20 07:30N 59°41' E 005°22'2 3.1
2017-May-20 07:00N 59°42' E 005°24'2 3.2
2017-May-20 06:30N 59°43' E 005°27'2 3.2
2017-May-20 05:59N 59°44' E 005°29'3 5.2
2017-May-20 05:30N 59°47' E 005°31'1 1.2
2017-May-20 04:59N 59°47' E 005°30'0 0.0
2017-May-20 04:29N 59°47' E 005°30'0 0.0
2017-May-20 03:59N 59°47' E 005°30'0 0.0
2017-May-20 03:29N 59°47' E 005°30'0 0.0
2017-May-20 03:00N 59°47' E 005°30'0 0.0
2017-May-20 02:29N 59°47' E 005°30'0 0.0
2017-May-20 02:00N 59°47' E 005°30'0 0.0
2017-May-20 01:31N 59°47' E 005°30'0 0.0
2017-May-20 01:00N 59°47' E 005°30'0 0.0
2017-May-20 00:28N 59°47' E 005°30'0 0.0
2017-May-19 23:57N 59°47' E 005°30'0 0.0
2017-May-19 23:28N 59°47' E 005°30'0 0.0
2017-May-19 23:00N 59°47' E 005°30'0 0.0
2017-May-19 22:31N 59°47' E 005°30'0 0.0
2017-May-19 21:57N 59°47' E 005°30'0 0.0
2017-May-19 21:29N 59°47' E 005°30'0 0.0
2017-May-19 20:59N 59°47' E 005°30'0 0.0
2017-May-19 20:26N 59°47' E 005°30'0 0.0
2017-May-19 19:01N 59°47' E 005°30'0 0.5
2017-May-19 18:54N 59°47' E 005°30'2 4.1
2017-May-19 18:30N 59°45' E 005°30'3 5.7
2017-May-19 18:00N 59°43' E 005°27'1 1.0
2017-May-19 17:28N 59°42' E 005°26'1 1.9
2017-May-19 17:00N 59°42' E 005°24'1 2.6
2017-May-19 16:30N 59°41' E 005°23'1 2.9
2017-May-19 16:00N 59°40' E 005°21'1 2.6
2017-May-19 15:30N 59°39' E 005°18'1 2.9
2017-May-19 14:59N 59°38' E 005°17'3 2.8
2017-May-19 13:56N 59°35' E 005°15'4 0.2
2017-May-18 18:31N 59°32' E 005°13'1 7.5
2017-May-18 18:23N 59°33' E 005°13'3 7.2
2017-May-18 17:59N 59°35' E 005°16'3 7.0
2017-May-18 17:30N 59°38' E 005°19'4 7.2
2017-May-18 17:00N 59°41' E 005°23'4 7.3
2017-May-18 16:30N 59°44' E 005°28'3 6.4
2017-May-18 16:00N 59°47' E 005°31'1 1.9
2017-May-18 15:31N 59°46' E 005°32'2 3.0
2017-May-18 14:59N 59°45' E 005°34'2 2.4
2017-May-18 13:58N 59°43' E 005°35'1 2.0
2017-May-18 13:30N 59°42' E 005°37'1 2.6
2017-May-18 13:00N 59°43' E 005°35'1 2.6
2017-May-18 12:30N 59°44' E 005°33'1 1.9
2017-May-18 12:00N 59°44' E 005°34'1 2.8
2017-May-18 11:30N 59°43' E 005°35'0 0.6
2017-May-18 11:00N 59°42' E 005°35'1 2.2
2017-May-18 10:29N 59°43' E 005°33'1 2.6
2017-May-18 10:00N 59°44' E 005°32'2 3.4
2017-May-18 09:30N 59°43' E 005°29'2 3.3
2017-May-18 09:00N 59°42' E 005°27'2 3.1
2017-May-18 08:30N 59°41' E 005°25'1 2.4
2017-May-18 08:00N 59°41' E 005°22'1 2.0
2017-May-18 07:29N 59°42' E 005°24'1 2.2
2017-May-18 07:00N 59°42' E 005°25'1 2.1
2017-May-18 06:29N 59°43' E 005°27'1 2.6
2017-May-18 06:01N 59°44' E 005°28'1 2.3
2017-May-18 05:29N 59°45' E 005°30'2 3.4
2017-May-18 04:59N 59°46' E 005°32'1 1.1
2017-May-18 04:30N 59°47' E 005°32'1 1.9
2017-May-18 04:00N 59°47' E 005°30'0 0.0
2017-May-18 03:30N 59°47' E 005°30'0 0.0
2017-May-18 02:59N 59°47' E 005°30'0 0.0
2017-May-18 02:30N 59°47' E 005°30'0 0.0
2017-May-18 01:59N 59°47' E 005°30'0 0.0
2017-May-18 01:29N 59°47' E 005°30'0 0.0
2017-May-18 01:00N 59°47' E 005°30'0 0.0
2017-May-18 00:30N 59°47' E 005°30'0 0.0
2017-May-18 00:00N 59°47' E 005°30'0 0.0
2017-May-17 23:29N 59°47' E 005°30'0 0.0
2017-May-17 23:00N 59°47' E 005°30'0 0.0
2017-May-17 22:29N 59°47' E 005°30'0 0.0
2017-May-17 21:58N 59°47' E 005°30'0 0.0
2017-May-17 21:30N 59°47' E 005°30'0 0.0
2017-May-17 21:00N 59°47' E 005°30'0 0.0
2017-May-17 18:32N 59°47' E 005°30'0 0.0
2017-May-17 18:24N 59°47' E 005°30'0 0.0
2017-May-17 17:46N 59°47' E 005°30'0 0.0
2017-May-17 17:29N 59°47' E 005°30'0 0.0
2017-May-17 17:01N 59°47' E 005°30'0 0.0
2017-May-17 16:29N 59°47' E 005°30'0 0.0
2017-May-17 16:00N 59°47' E 005°30'0 0.0
2017-May-17 15:30N 59°47' E 005°30'0 0.0
2017-May-17 15:00N 59°47' E 005°30'0 0.0
2017-May-17 14:29N 59°47' E 005°30'0 0.0
2017-May-17 13:29N 59°47' E 005°30'0 0.0
2017-May-17 12:59N 59°47' E 005°30'0 0.0
2017-May-17 12:30N 59°47' E 005°30'0 0.0
2017-May-17 12:00N 59°47' E 005°30'2 3.9
2017-May-17 11:30N 59°45' E 005°33'3 6.1
2017-May-17 11:00N 59°42' E 005°35'1 2.2
2017-May-17 10:30N 59°43' E 005°36'2 3.3
2017-May-17 10:00N 59°45' E 005°38'1 2.5
2017-May-17 09:30N 59°45' E 005°35'1 1.6
2017-May-17 08:59N 59°45' E 005°37'1 2.1
2017-May-17 08:30N 59°46' E 005°38'1 2.5
2017-May-17 08:00N 59°44' E 005°38'1 2.3
2017-May-17 07:29N 59°43' E 005°37'1 2.5
2017-May-17 07:00N 59°43' E 005°35'1 2.8
2017-May-17 06:30N 59°44' E 005°33'1 2.6
2017-May-17 05:59N 59°45' E 005°33'1 2.0
2017-May-17 05:30N 59°46' E 005°34'1 1.8
2017-May-17 04:58N 59°47' E 005°35'2 3.2
2017-May-17 04:30N 59°47' E 005°32'1 2.0
2017-May-17 04:00N 59°47' E 005°30'0 0.0
2017-May-17 03:29N 59°47' E 005°30'0 0.0
2017-May-17 02:58N 59°47' E 005°30'0 0.0
2017-May-17 02:30N 59°47' E 005°30'0 0.0
2017-May-17 01:59N 59°47' E 005°30'0 0.0
2017-May-17 01:29N 59°47' E 005°30'0 0.0
2017-May-17 01:00N 59°47' E 005°30'0 0.0
2017-May-17 00:30N 59°47' E 005°30'0 0.0
2017-May-16 23:59N 59°47' E 005°30'0 0.0
2017-May-16 23:30N 59°47' E 005°30'0 0.0
2017-May-16 23:00N 59°47' E 005°30'0 0.0
2017-May-16 22:30N 59°47' E 005°30'0 0.0
2017-May-16 21:58N 59°47' E 005°30'0 0.0
2017-May-16 21:30N 59°47' E 005°30'0 0.0
2017-May-16 20:59N 59°47' E 005°30'0 0.0
2017-May-16 19:49N 59°47' E 005°30'0 0.0
2017-May-16 19:25N 59°47' E 005°30'0 0.0
2017-May-16 18:51N 59°47' E 005°30'0 0.0
2017-May-16 18:26N 59°47' E 005°30'0 0.0
2017-May-16 17:59N 59°47' E 005°30'0 0.0
2017-May-16 17:30N 59°47' E 005°30'0 0.0
2017-May-16 16:58N 59°47' E 005°30'0 0.0
2017-May-16 16:29N 59°47' E 005°30'0 0.0
2017-May-16 16:00N 59°47' E 005°30'1 2.8
2017-May-16 15:31N 59°46' E 005°32'1 2.6
2017-May-16 15:00N 59°45' E 005°33'2 3.2
2017-May-16 14:30N 59°44' E 005°36'3 2.9
2017-May-16 13:30N 59°42' E 005°40'2 3.1
2017-May-16 13:00N 59°42' E 005°43'2 3.0
2017-May-16 12:29N 59°41' E 005°46'1 2.9
2017-May-16 12:00N 59°42' E 005°48'1 2.8
2017-May-16 11:29N 59°43' E 005°49'1 2.6
2017-May-16 11:00N 59°44' E 005°50'1 2.9
2017-May-16 10:30N 59°45' E 005°53'1 2.8
2017-May-16 09:58N 59°46' E 005°54'1 2.4
2017-May-16 09:30N 59°46' E 005°57'0 0.1
2017-May-16 09:00N 59°46' E 005°56'1 2.2
2017-May-16 08:30N 59°47' E 005°55'1 2.5
2017-May-16 08:00N 59°47' E 005°58'1 2.4
2017-May-16 07:30N 59°47' E 005°55'1 2.4
2017-May-16 07:00N 59°47' E 005°57'1 2.5
2017-May-16 06:30N 59°46' E 005°56'1 2.0
2017-May-16 06:00N 59°47' E 005°56'1 1.6
2017-May-16 05:30N 59°46' E 005°56'1 2.5
2017-May-16 04:59N 59°45' E 005°56'1 2.3
2017-May-16 04:28N 59°44' E 005°56'0 0.0
2017-May-16 04:00N 59°44' E 005°56'0 0.0
2017-May-16 03:30N 59°44' E 005°56'0 0.0
2017-May-16 02:59N 59°44' E 005°56'0 0.0
2017-May-16 02:30N 59°44' E 005°56'0 0.0
2017-May-16 01:59N 59°44' E 005°56'0 0.0
2017-May-16 01:30N 59°44' E 005°56'0 0.0
2017-May-16 00:59N 59°44' E 005°56'0 0.0
2017-May-16 00:29N 59°44' E 005°56'0 0.0
2017-May-16 00:00N 59°44' E 005°56'0 0.0
2017-May-15 23:29N 59°44' E 005°56'0 0.0
2017-May-15 22:58N 59°44' E 005°56'0 0.0
2017-May-15 22:28N 59°44' E 005°56'0 0.0
2017-May-15 21:58N 59°44' E 005°56'0 0.0
2017-May-15 21:29N 59°44' E 005°56'0 0.0
2017-May-15 21:00N 59°44' E 005°56'0 0.0
2017-May-15 20:30N 59°44' E 005°56'0 0.5
2017-May-15 19:59N 59°44' E 005°56'1 2.9
2017-May-15 19:29N 59°45' E 005°53'1 1.1
2017-May-15 19:00N 59°45' E 005°54'1 2.2
2017-May-15 18:27N 59°46' E 005°54'1 2.0
2017-May-15 18:00N 59°45' E 005°54'1 1.7
2017-May-15 17:27N 59°46' E 005°55'  
Track history (hours):
 
Tides and Currents Weather Stations Pressure Air Temp Water Temp Dewpoint Dewpoint Depression Visibility Wind Speed Wind Dir Waves Ship Positions

Oceanographic research ship Fangst (Norway)

Detailed information on ship capabilities available from University of Delaware's Ocean Information Center and ARCUS's ALIAS (Arctic Logistics Information and Support) project.

Last reported at 2017-May-25 17:22 UTC. Time now 2017-May-26 07:23 UTC.
Position N 59°36' E 005°14'.

Length 14 m; draft 2.5 m.

Type: Fishing. MMSI: 257076840.

Date/timePositionNaut miles runAvg speedWind from/ knotsBaromVisibWave heightAir tempDewpointWater temp
2017-May-25 17:22N 59°36' E 005°14'2 4.9
2017-May-25 17:00N 59°38' E 005°16'1 1.6
2017-May-25 16:28N 59°37' E 005°16'1 2.5
2017-May-25 15:59N 59°36' E 005°15'2 2.5
2017-May-25 15:23N 59°35' E 005°13'1 0.4
2017-May-25 14:00N 59°35' E 005°14'1 2.9
2017-May-25 13:30N 59°36' E 005°15'1 2.8
2017-May-25 13:00N 59°37' E 005°17'1 1.5
2017-May-25 12:30N 59°37' E 005°16'1 2.7
2017-May-25 12:00N 59°36' E 005°14'2 2.7
2017-May-25 11:15N 59°34' E 005°12'1 0.1
2017-May-24 16:11N 59°35' E 005°14'0 2.0
2017-May-24 16:00N 59°35' E 005°14'1 1.7
2017-May-24 15:30N 59°36' E 005°15'1 3.0
2017-May-24 15:00N 59°37' E 005°16'1 2.9
2017-May-24 14:30N 59°39' E 005°17'0 0.4
2017-May-24 13:29N 59°39' E 005°18'1 2.5
2017-May-24 12:58N 59°38' E 005°16'1 2.4
2017-May-24 12:30N 59°37' E 005°18'1 2.7
2017-May-24 12:00N 59°39' E 005°17'1 2.4
2017-May-24 11:30N 59°40' E 005°19'1 2.7
2017-May-24 10:59N 59°40' E 005°21'1 2.8
2017-May-24 10:29N 59°41' E 005°23'1 2.8
2017-May-24 10:00N 59°42' E 005°25'1 2.8
2017-May-24 09:30N 59°43' E 005°27'1 2.4
2017-May-24 08:58N 59°44' E 005°29'2 4.2
2017-May-24 08:30N 59°46' E 005°31'1 2.0
2017-May-24 07:59N 59°47' E 005°30'0 0.0
2017-May-24 07:29N 59°47' E 005°30'0 0.0
2017-May-24 06:57N 59°47' E 005°30'0 0.0
2017-May-24 06:30N 59°47' E 005°30'0 0.0
2017-May-24 06:00N 59°47' E 005°30'0 0.0
2017-May-24 05:29N 59°47' E 005°30'0 0.0
2017-May-24 05:00N 59°47' E 005°30'0 0.0
2017-May-24 04:29N 59°47' E 005°30'0 0.0
2017-May-24 03:59N 59°47' E 005°30'0 0.0
2017-May-24 03:30N 59°47' E 005°30'0 0.0
2017-May-24 02:59N 59°47' E 005°30'0 0.0
2017-May-24 02:29N 59°47' E 005°30'0 0.0
2017-May-24 02:00N 59°47' E 005°30'0 0.0
2017-May-24 01:30N 59°47' E 005°30'0 0.0
2017-May-24 00:59N 59°47' E 005°30'0 0.0
2017-May-24 00:28N 59°47' E 005°30'0 0.0
2017-May-24 00:00N 59°47' E 005°30'0 0.0
2017-May-23 23:29N 59°47' E 005°30'0 0.0
2017-May-23 23:00N 59°47' E 005°30'0 0.0
2017-May-23 22:28N 59°47' E 005°30'0 0.0
2017-May-23 21:58N 59°47' E 005°30'0 0.0
2017-May-23 21:29N 59°47' E 005°30'0 0.0
2017-May-23 21:00N 59°47' E 005°30'0 0.0
2017-May-23 20:29N 59°47' E 005°30'0 0.0
2017-May-23 20:00N 59°47' E 005°30'0 0.0
2017-May-23 19:29N 59°47' E 005°30'0 0.0
2017-May-23 19:00N 59°47' E 005°30'0 0.0
2017-May-23 18:29N 59°47' E 005°30'0 0.0
2017-May-23 18:00N 59°47' E 005°30'0 0.0
2017-May-23 17:30N 59°47' E 005°30'0 0.0
2017-May-23 16:59N 59°47' E 005°30'0 0.0
2017-May-23 16:29N 59°47' E 005°30'0 0.0
2017-May-23 16:00N 59°47' E 005°30'0 0.0
2017-May-23 15:30N 59°47' E 005°30'0 0.0
2017-May-23 14:59N 59°47' E 005°30'2 4.5
2017-May-23 14:30N 59°45' E 005°33'2 1.7
2017-May-23 13:30N 59°44' E 005°31'1 2.9
2017-May-23 12:59N 59°44' E 005°28'1 2.5
2017-May-23 12:30N 59°43' E 005°26'1 2.4
2017-May-23 12:00N 59°42' E 005°25'1 2.5
2017-May-23 11:30N 59°41' E 005°23'1 2.7
2017-May-23 10:59N 59°40' E 005°21'1 1.9
2017-May-23 10:30N 59°41' E 005°23'1 2.4
2017-May-23 09:59N 59°42' E 005°24'2 3.3
2017-May-23 09:30N 59°43' E 005°26'2 3.4
2017-May-23 09:00N 59°44' E 005°28'2 4.3
2017-May-23 08:30N 59°46' E 005°31'1 1.6
2017-May-23 08:00N 59°47' E 005°30'0 0.0
2017-May-23 07:29N 59°47' E 005°30'0 0.0
2017-May-23 06:59N 59°47' E 005°30'0 0.0
2017-May-23 06:30N 59°47' E 005°30'0 0.0
2017-May-23 06:00N 59°47' E 005°30'0 0.0
2017-May-23 05:30N 59°47' E 005°30'0 0.0
2017-May-23 04:59N 59°47' E 005°30'0 0.0
2017-May-23 04:30N 59°47' E 005°30'0 0.0
2017-May-23 04:00N 59°47' E 005°30'0 0.0
2017-May-23 03:29N 59°47' E 005°30'0 0.0
2017-May-23 02:59N 59°47' E 005°30'0 0.0
2017-May-23 02:30N 59°47' E 005°30'0 0.0
2017-May-23 02:00N 59°47' E 005°30'0 0.0
2017-May-23 01:30N 59°47' E 005°30'0 0.0
2017-May-23 00:59N 59°47' E 005°30'0 0.0
2017-May-23 00:30N 59°47' E 005°30'0 0.0
2017-May-22 23:59N 59°47' E 005°30'0 0.0
2017-May-22 23:30N 59°47' E 005°30'0 0.0
2017-May-22 23:00N 59°47' E 005°30'0 0.0
2017-May-22 22:29N 59°47' E 005°30'0 0.0
2017-May-22 21:58N 59°47' E 005°30'0 0.0
2017-May-22 21:29N 59°47' E 005°30'0 0.0
2017-May-22 21:01N 59°47' E 005°30'0 0.0
2017-May-22 20:30N 59°47' E 005°30'0 0.0
2017-May-22 19:59N 59°47' E 005°30'0 0.0
2017-May-22 19:29N 59°47' E 005°30'0 0.0
2017-May-22 18:59N 59°47' E 005°30'0 0.0
2017-May-22 18:29N 59°47' E 005°30'0 0.0
2017-May-22 17:59N 59°47' E 005°30'0 0.0
2017-May-22 17:30N 59°47' E 005°30'0 0.0
2017-May-22 17:00N 59°47' E 005°30'0 0.0
2017-May-22 16:30N 59°47' E 005°30'0 0.0
2017-May-22 16:00N 59°47' E 005°30'0 0.0
2017-May-22 15:30N 59°47' E 005°30'0 0.0
2017-May-22 15:00N 59°47' E 005°30'1 1.1
2017-May-22 14:00N 59°46' E 005°30'2 5.0
2017-May-22 13:30N 59°44' E 005°28'1 1.9
2017-May-22 13:00N 59°43' E 005°27'2 2.9
2017-May-22 12:29N 59°42' E 005°24'1 2.6
2017-May-22 11:59N 59°41' E 005°23'1 2.8
2017-May-22 11:29N 59°40' E 005°20'1 2.7
2017-May-22 11:00N 59°39' E 005°19'1 2.8
2017-May-22 10:30N 59°38' E 005°18'1 2.2
2017-May-22 10:00N 59°39' E 005°16'1 2.7
2017-May-22 09:29N 59°39' E 005°18'1 2.7
2017-May-22 09:00N 59°40' E 005°20'1 2.7
2017-May-22 08:30N 59°41' E 005°22'1 2.9
2017-May-22 08:00N 59°42' E 005°24'1 2.7
2017-May-22 07:31N 59°43' E 005°26'2 3.0
2017-May-22 07:00N 59°44' E 005°28'2 3.2
2017-May-22 06:30N 59°45' E 005°30'1 2.6
2017-May-22 06:00N 59°47' E 005°30'0 0.0
2017-May-22 05:30N 59°47' E 005°30'0 0.0
2017-May-22 05:00N 59°47' E 005°30'0 0.0
2017-May-22 04:30N 59°47' E 005°30'0 0.0
2017-May-22 03:59N 59°47' E 005°30'0 0.0
2017-May-22 03:27N 59°47' E 005°30'0 0.0
2017-May-22 02:57N 59°47' E 005°30'0 0.0
2017-May-22 02:29N 59°47' E 005°30'0 0.0
2017-May-22 01:41N 59°47' E 005°30'0 0.0
2017-May-22 01:29N 59°47' E 005°30'0 0.0
2017-May-22 00:25N 59°47' E 005°30'0 0.0
2017-May-21 23:58N 59°47' E 005°30'0 0.0
2017-May-21 23:22N 59°47' E 005°30'0 0.0
2017-May-21 22:58N 59°47' E 005°30'0 0.0
2017-May-21 22:30N 59°47' E 005°30'0 0.0
2017-May-21 21:58N 59°47' E 005°30'0 0.0
2017-May-21 21:26N 59°47' E 005°30'0 0.0
2017-May-21 21:00N 59°47' E 005°30'0 0.0
2017-May-21 20:29N 59°47' E 005°30'0 0.0
2017-May-21 19:48N 59°47' E 005°30'0 0.0
2017-May-21 19:29N 59°47' E 005°30'0 0.0
2017-May-21 19:00N 59°47' E 005°30'0 0.0
2017-May-21 18:28N 59°47' E 005°30'0 0.0
2017-May-21 18:00N 59°47' E 005°30'0 0.0
2017-May-21 17:29N 59°47' E 005°30'0 0.0
2017-May-21 17:00N 59°47' E 005°30'0 0.0
2017-May-21 16:28N 59°47' E 005°30'0 0.0
2017-May-21 15:59N 59°47' E 005°30'0 0.0
2017-May-21 15:28N 59°47' E 005°30'0 0.0
2017-May-21 14:59N 59°47' E 005°30'0 0.0
2017-May-21 14:28N 59°47' E 005°30'3 3.0
2017-May-21 13:29N 59°44' E 005°27'1 2.2
2017-May-21 13:00N 59°43' E 005°26'1 2.9
2017-May-21 12:30N 59°42' E 005°24'1 2.8
2017-May-21 12:00N 59°41' E 005°22'1 2.6
2017-May-21 11:28N 59°40' E 005°20'1 2.5
2017-May-21 11:00N 59°39' E 005°19'1 2.8
2017-May-21 10:29N 59°38' E 005°18'1 2.0
2017-May-21 10:00N 59°39' E 005°16'1 2.5
2017-May-21 09:29N 59°39' E 005°18'1 2.2
2017-May-21 09:00N 59°40' E 005°20'1 2.6
2017-May-21 08:29N 59°41' E 005°22'1 3.0
2017-May-21 08:00N 59°42' E 005°24'1 3.0
2017-May-21 07:30N 59°43' E 005°26'2 3.0
2017-May-21 07:00N 59°44' E 005°28'1 3.0
2017-May-21 06:30N 59°45' E 005°30'2 2.9
2017-May-21 05:59N 59°47' E 005°30'0 0.0
2017-May-21 05:30N 59°47' E 005°30'0 0.0
2017-May-21 05:00N 59°47' E 005°30'0 0.0
2017-May-21 04:30N 59°47' E 005°30'0 0.0
2017-May-21 03:59N 59°47' E 005°30'0 0.0
2017-May-21 03:29N 59°47' E 005°30'0 0.0
2017-May-21 03:00N 59°47' E 005°30'0 0.0
2017-May-21 02:30N 59°47' E 005°30'0 0.0
2017-May-21 02:00N 59°47' E 005°30'0 0.0
2017-May-21 01:30N 59°47' E 005°30'0 0.0
2017-May-21 01:00N 59°47' E 005°30'0 0.0
2017-May-21 00:29N 59°47' E 005°30'0 0.0
2017-May-21 00:00N 59°47' E 005°30'0 0.0
2017-May-20 23:30N 59°47' E 005°30'0 0.0
2017-May-20 22:59N 59°47' E 005°30'0 0.0
2017-May-20 22:29N 59°47' E 005°30'0 0.0
2017-May-20 21:57N 59°47' E 005°30'0 0.0
2017-May-20 21:30N 59°47' E 005°30'0 0.0
2017-May-20 21:00N 59°47' E 005°30'0 0.0
2017-May-20 20:29N 59°47' E 005°30'0 0.0
2017-May-20 19:59N 59°47' E 005°30'0 0.0
2017-May-20 19:30N 59°47' E 005°30'0 0.0
2017-May-20 18:59N 59°47' E 005°30'0 0.0
2017-May-20 18:30N 59°47' E 005°30'0 0.0
2017-May-20 17:59N 59°47' E 005°30'0 0.0
2017-May-20 17:29N 59°47' E 005°30'0 0.0
2017-May-20 16:59N 59°47' E 005°30'0 0.0
2017-May-20 16:28N 59°47' E 005°30'0 0.0
2017-May-20 16:00N 59°47' E 005°30'0 0.0
2017-May-20 15:30N 59°47' E 005°30'0 0.0
2017-May-20 14:59N 59°47' E 005°30'0 0.1
2017-May-20 14:30N 59°47' E 005°30'6 5.8
2017-May-20 13:30N 59°42' E 005°23'0 0.0
2017-May-20 13:00N 59°42' E 005°23'0 0.0
2017-May-20 12:29N 59°42' E 005°23'1 2.5
2017-May-20 12:00N 59°41' E 005°22'1 2.7
2017-May-20 11:30N 59°40' E 005°20'1 2.9
2017-May-20 11:00N 59°39' E 005°18'1 2.8
2017-May-20 10:29N 59°38' E 005°17'1 2.6
2017-May-20 10:00N 59°37' E 005°17'1 1.4
2017-May-20 09:28N 59°37' E 005°15'1 2.7
2017-May-20 08:58N 59°38' E 005°16'1 2.9
2017-May-20 08:30N 59°39' E 005°17'2 3.2
2017-May-20 07:59N 59°40' E 005°20'1 3.1
2017-May-20 07:30N 59°41' E 005°22'2 3.1
2017-May-20 07:00N 59°42' E 005°24'2 3.2
2017-May-20 06:30N 59°43' E 005°27'2 3.2
2017-May-20 05:59N 59°44' E 005°29'3 5.2
2017-May-20 05:30N 59°47' E 005°31'1 1.2
2017-May-20 04:59N 59°47' E 005°30'0 0.0
2017-May-20 04:29N 59°47' E 005°30'0 0.0
2017-May-20 03:59N 59°47' E 005°30'0 0.0
2017-May-20 03:29N 59°47' E 005°30'0 0.0
2017-May-20 03:00N 59°47' E 005°30'0 0.0
2017-May-20 02:29N 59°47' E 005°30'0 0.0
2017-May-20 02:00N 59°47' E 005°30'0 0.0
2017-May-20 01:31N 59°47' E 005°30'0 0.0
2017-May-20 01:00N 59°47' E 005°30'0 0.0
2017-May-20 00:28N 59°47' E 005°30'0 0.0
2017-May-19 23:57N 59°47' E 005°30'0 0.0
2017-May-19 23:28N 59°47' E 005°30'0 0.0
2017-May-19 23:00N 59°47' E 005°30'0 0.0
2017-May-19 22:31N 59°47' E 005°30'0 0.0
2017-May-19 21:57N 59°47' E 005°30'0 0.0
2017-May-19 21:29N 59°47' E 005°30'0 0.0
2017-May-19 20:59N 59°47' E 005°30'0 0.0
2017-May-19 20:26N 59°47' E 005°30'0 0.0
2017-May-19 19:01N 59°47' E 005°30'0 0.5
2017-May-19 18:54N 59°47' E 005°30'2 4.1
2017-May-19 18:30N 59°45' E 005°30'3 5.7
2017-May-19 18:00N 59°43' E 005°27'1 1.0
2017-May-19 17:28N 59°42' E 005°26'1 1.9
2017-May-19 17:00N 59°42' E 005°24'1 2.6
2017-May-19 16:30N 59°41' E 005°23'1 2.9
2017-May-19 16:00N 59°40' E 005°21'1 2.6
2017-May-19 15:30N 59°39' E 005°18'1 2.9
2017-May-19 14:59N 59°38' E 005°17'3 2.8
2017-May-19 13:56N 59°35' E 005°15'4 0.2
2017-May-18 18:31N 59°32' E 005°13'1 7.5
2017-May-18 18:23N 59°33' E 005°13'3 7.2
2017-May-18 17:59N 59°35' E 005°16'3 7.0
2017-May-18 17:30N 59°38' E 005°19'4 7.2
2017-May-18 17:00N 59°41' E 005°23'4 7.3
2017-May-18 16:30N 59°44' E 005°28'3 6.4
2017-May-18 16:00N 59°47' E 005°31'1 1.9
2017-May-18 15:31N 59°46' E 005°32'2 3.0
2017-May-18 14:59N 59°45' E 005°34'2 2.4
2017-May-18 13:58N 59°43' E 005°35'1 2.0
2017-May-18 13:30N 59°42' E 005°37'1 2.6
2017-May-18 13:00N 59°43' E 005°35'1 2.6
2017-May-18 12:30N 59°44' E 005°33'1 1.9
2017-May-18 12:00N 59°44' E 005°34'1 2.8
2017-May-18 11:30N 59°43' E 005°35'0 0.6
2017-May-18 11:00N 59°42' E 005°35'1 2.2
2017-May-18 10:29N 59°43' E 005°33'1 2.6
2017-May-18 10:00N 59°44' E 005°32'2 3.4
2017-May-18 09:30N 59°43' E 005°29'2 3.3
2017-May-18 09:00N 59°42' E 005°27'2 3.1
2017-May-18 08:30N 59°41' E 005°25'1 2.4
2017-May-18 08:00N 59°41' E 005°22'1 2.0
2017-May-18 07:29N 59°42' E 005°24'1 2.2
2017-May-18 07:00N 59°42' E 005°25'1 2.1
2017-May-18 06:29N 59°43' E 005°27'1 2.6
2017-May-18 06:01N 59°44' E 005°28'1 2.3
2017-May-18 05:29N 59°45' E 005°30'2 3.4
2017-May-18 04:59N 59°46' E 005°32'1 1.1
2017-May-18 04:30N 59°47' E 005°32'1 1.9
2017-May-18 04:00N 59°47' E 005°30'0 0.0
2017-May-18 03:30N 59°47' E 005°30'0 0.0
2017-May-18 02:59N 59°47' E 005°30'0 0.0
2017-May-18 02:30N 59°47' E 005°30'0 0.0
2017-May-18 01:59N 59°47' E 005°30'0 0.0
2017-May-18 01:29N 59°47' E 005°30'0 0.0
2017-May-18 01:00N 59°47' E 005°30'0 0.0
2017-May-18 00:30N 59°47' E 005°30'0 0.0
2017-May-18 00:00N 59°47' E 005°30'0 0.0
2017-May-17 23:29N 59°47' E 005°30'0 0.0
2017-May-17 23:00N 59°47' E 005°30'0 0.0
2017-May-17 22:29N 59°47' E 005°30'0 0.0
2017-May-17 21:58N 59°47' E 005°30'0 0.0
2017-May-17 21:30N 59°47' E 005°30'0 0.0
2017-May-17 21:00N 59°47' E 005°30'0 0.0
2017-May-17 18:32N 59°47' E 005°30'0 0.0
2017-May-17 18:24N 59°47' E 005°30'0 0.0
2017-May-17 17:46N 59°47' E 005°30'0 0.0
2017-May-17 17:29N 59°47' E 005°30'0 0.0
2017-May-17 17:01N 59°47' E 005°30'0 0.0
2017-May-17 16:29N 59°47' E 005°30'0 0.0
2017-May-17 16:00N 59°47' E 005°30'0 0.0
2017-May-17 15:30N 59°47' E 005°30'0 0.0
2017-May-17 15:00N 59°47' E 005°30'0 0.0
2017-May-17 14:29N 59°47' E 005°30'0 0.0
2017-May-17 13:29N 59°47' E 005°30'0 0.0
2017-May-17 12:59N 59°47' E 005°30'0 0.0
2017-May-17 12:30N 59°47' E 005°30'0 0.0
2017-May-17 12:00N 59°47' E 005°30'2 3.9
2017-May-17 11:30N 59°45' E 005°33'3 6.1
2017-May-17 11:00N 59°42' E 005°35'1 2.2
2017-May-17 10:30N 59°43' E 005°36'2 3.3
2017-May-17 10:00N 59°45' E 005°38'1 2.5
2017-May-17 09:30N 59°45' E 005°35'1 1.6
2017-May-17 08:59N 59°45' E 005°37'1 2.1
2017-May-17 08:30N 59°46' E 005°38'1 2.5
2017-May-17 08:00N 59°44' E 005°38'1 2.3
2017-May-17 07:29N 59°43' E 005°37'1 2.5
2017-May-17 07:00N 59°43' E 005°35'1 2.8
2017-May-17 06:30N 59°44' E 005°33'1 2.6
2017-May-17 05:59N 59°45' E 005°33'1 2.0
2017-May-17 05:30N 59°46' E 005°34'1 1.8
2017-May-17 04:58N 59°47' E 005°35'2 3.2
2017-May-17 04:30N 59°47' E 005°32'1 2.0
2017-May-17 04:00N 59°47' E 005°30'0 0.0
2017-May-17 03:29N 59°47' E 005°30'0 0.0
2017-May-17 02:58N 59°47' E 005°30'0 0.0
2017-May-17 02:30N 59°47' E 005°30'0 0.0
2017-May-17 01:59N 59°47' E 005°30'0 0.0
2017-May-17 01:29N 59°47' E 005°30'0 0.0
2017-May-17 01:00N 59°47' E 005°30'0 0.0
2017-May-17 00:30N 59°47' E 005°30'0 0.0
2017-May-16 23:59N 59°47' E 005°30'0 0.0
2017-May-16 23:30N 59°47' E 005°30'0 0.0
2017-May-16 23:00N 59°47' E 005°30'0 0.0
2017-May-16 22:30N 59°47' E 005°30'0 0.0
2017-May-16 21:58N 59°47' E 005°30'0 0.0
2017-May-16 21:30N 59°47' E 005°30'0 0.0
2017-May-16 20:59N 59°47' E 005°30'0 0.0
2017-May-16 19:49N 59°47' E 005°30'0 0.0
2017-May-16 19:25N 59°47' E 005°30'0 0.0
2017-May-16 18:51N 59°47' E 005°30'0 0.0
2017-May-16 18:26N 59°47' E 005°30'0 0.0
2017-May-16 17:59N 59°47' E 005°30'0 0.0
2017-May-16 17:30N 59°47' E 005°30'0 0.0
2017-May-16 16:58N 59°47' E 005°30'0 0.0
2017-May-16 16:29N 59°47' E 005°30'0 0.0
2017-May-16 16:00N 59°47' E 005°30'1 2.8
2017-May-16 15:31N 59°46' E 005°32'1 2.6
2017-May-16 15:00N 59°45' E 005°33'2 3.2
2017-May-16 14:30N 59°44' E 005°36'3 2.9
2017-May-16 13:30N 59°42' E 005°40'2 3.1
2017-May-16 13:00N 59°42' E 005°43'2 3.0
2017-May-16 12:29N 59°41' E 005°46'1 2.9
2017-May-16 12:00N 59°42' E 005°48'1 2.8
2017-May-16 11:29N 59°43' E 005°49'1 2.6
2017-May-16 11:00N 59°44' E 005°50'1 2.9
2017-May-16 10:30N 59°45' E 005°53'1 2.8
2017-May-16 09:58N 59°46' E 005°54'1 2.4
2017-May-16 09:30N 59°46' E 005°57'0 0.1
2017-May-16 09:00N 59°46' E 005°56'1 2.2
2017-May-16 08:30N 59°47' E 005°55'1 2.5
2017-May-16 08:00N 59°47' E 005°58'1 2.4
2017-May-16 07:30N 59°47' E 005°55'1 2.4
2017-May-16 07:00N 59°47' E 005°57'1 2.5
2017-May-16 06:30N 59°46' E 005°56'1 2.0
2017-May-16 06:00N 59°47' E 005°56'1 1.6
2017-May-16 05:30N 59°46' E 005°56'1 2.5
2017-May-16 04:59N 59°45' E 005°56'1 2.3
2017-May-16 04:28N 59°44' E 005°56'0 0.0
2017-May-16 04:00N 59°44' E 005°56'0 0.0
2017-May-16 03:30N 59°44' E 005°56'0 0.0
2017-May-16 02:59N 59°44' E 005°56'0 0.0
2017-May-16 02:30N 59°44' E 005°56'0 0.0
2017-May-16 01:59N 59°44' E 005°56'0 0.0
2017-May-16 01:30N 59°44' E 005°56'0 0.0
2017-May-16 00:59N 59°44' E 005°56'0 0.0
2017-May-16 00:29N 59°44' E 005°56'0 0.0
2017-May-16 00:00N 59°44' E 005°56'0 0.0
2017-May-15 23:29N 59°44' E 005°56'0 0.0
2017-May-15 22:58N 59°44' E 005°56'0 0.0
2017-May-15 22:28N 59°44' E 005°56'0 0.0
2017-May-15 21:58N 59°44' E 005°56'0 0.0
2017-May-15 21:29N 59°44' E 005°56'0 0.0
2017-May-15 21:00N 59°44' E 005°56'0 0.0
2017-May-15 20:30N 59°44' E 005°56'0 0.5
2017-May-15 19:59N 59°44' E 005°56'1 2.9
2017-May-15 19:29N 59°45' E 005°53'1 1.1
2017-May-15 19:00N 59°45' E 005°54'1 2.2
2017-May-15 18:27N 59°46' E 005°54'1 2.0
2017-May-15 18:00N 59°45' E 005°54'1 1.7
2017-May-15 17:27N 59°46' E 005°55'  

Dump ship's entire track history